createdAt,value
2022-09-30T00:01:29.436Z,11.20
2022-09-30T00:03:57.529Z,11.10
2022-09-30T00:06:27.007Z,11.10
2022-09-30T00:08:54.418Z,11.10
2022-09-30T00:11:26.086Z,11.10
2022-09-30T00:13:53.610Z,11.10
2022-09-30T00:16:22.604Z,11.10
2022-09-30T00:18:50.036Z,11.00
2022-09-30T00:21:17.619Z,11.00
2022-09-30T00:23:45.363Z,10.90
2022-09-30T00:26:19.126Z,10.90
2022-09-30T00:28:50.378Z,10.90
2022-09-30T00:31:19.733Z,10.80
2022-09-30T00:34:07.155Z,10.80
2022-09-30T00:36:49.773Z,10.80
2022-09-30T00:39:21.499Z,10.80
2022-09-30T00:41:52.387Z,10.70
2022-09-30T00:44:47.000Z,10.70
2022-09-30T00:47:57.032Z,10.70
2022-09-30T00:50:34.160Z,10.70
2022-09-30T00:53:32.483Z,10.70
2022-09-30T00:56:14.359Z,10.70
2022-09-30T00:59:07.212Z,10.70
2022-09-30T01:01:36.396Z,10.60
2022-09-30T01:04:13.295Z,10.60
2022-09-30T01:06:41.602Z,10.60
2022-09-30T01:09:09.569Z,10.50
2022-09-30T01:11:36.706Z,10.50
2022-09-30T01:14:09.912Z,10.50
2022-09-30T01:17:00.619Z,10.50
2022-09-30T01:20:18.718Z,10.50
2022-09-30T01:23:30.129Z,10.50
2022-09-30T01:26:59.016Z,10.50
2022-09-30T01:29:53.737Z,10.40
2022-09-30T01:33:04.347Z,10.40
2022-09-30T01:35:54.618Z,10.40
2022-09-30T01:38:50.072Z,10.40
2022-09-30T01:41:42.432Z,10.30
2022-09-30T01:44:41.755Z,10.30
2022-09-30T01:47:25.410Z,10.30
2022-09-30T01:50:16.215Z,10.20
2022-09-30T01:53:23.965Z,10.20
2022-09-30T01:56:20.775Z,10.20
2022-09-30T01:59:01.980Z,10.20
2022-09-30T02:01:39.231Z,10.20
2022-09-30T02:04:17.016Z,10.20
2022-09-30T02:06:50.727Z,10.20
2022-09-30T02:09:28.624Z,10.10
2022-09-30T02:12:00.043Z,10.10
2022-09-30T02:14:41.475Z,10.10
2022-09-30T02:17:30.215Z,10.10
2022-09-30T02:20:19.404Z,10.00
2022-09-30T02:22:52.164Z,10.00
2022-09-30T02:25:27.278Z,10.00
2022-09-30T02:28:01.459Z,10.00
2022-09-30T02:30:29.532Z,10.00
2022-09-30T02:33:12.215Z,9.90
2022-09-30T02:35:46.881Z,9.90
2022-09-30T02:38:20.580Z,9.90
2022-09-30T02:40:57.054Z,10.00
2022-09-30T02:43:24.310Z,9.90
2022-09-30T02:46:22.378Z,9.90
2022-09-30T02:49:05.748Z,9.90
2022-09-30T02:52:01.911Z,9.90
2022-09-30T02:55:13.988Z,10.00
2022-09-30T02:58:03.628Z,9.90
2022-09-30T03:00:30.676Z,9.90
2022-09-30T03:03:05.262Z,9.90
2022-09-30T03:05:32.248Z,9.90
2022-09-30T03:07:59.142Z,9.90
2022-09-30T03:10:26.029Z,9.90
2022-09-30T03:13:40.259Z,9.90
2022-09-30T03:16:50.600Z,9.90
2022-09-30T03:19:26.815Z,9.90
2022-09-30T03:22:11.492Z,9.80
2022-09-30T03:25:14.946Z,9.80
2022-09-30T03:28:33.613Z,9.80
2022-09-30T03:31:27.357Z,9.80
2022-09-30T03:34:29.106Z,9.70
2022-09-30T03:37:04.422Z,9.70
2022-09-30T03:40:00.684Z,9.70
2022-09-30T03:43:01.420Z,9.70
2022-09-30T03:45:50.521Z,9.70
2022-09-30T03:48:20.898Z,9.70
2022-09-30T03:50:48.419Z,9.70
2022-09-30T03:53:16.123Z,9.70
2022-09-30T03:55:52.091Z,9.60
2022-09-30T03:58:22.134Z,9.60
2022-09-30T04:00:53.049Z,9.60
2022-09-30T04:03:22.830Z,9.60
2022-09-30T04:05:50.211Z,9.60
2022-09-30T04:08:17.244Z,9.50
2022-09-30T04:10:44.576Z,9.50
2022-09-30T04:13:12.532Z,9.50
2022-09-30T04:15:40.548Z,9.50
2022-09-30T04:18:07.794Z,9.60
2022-09-30T04:20:34.799Z,9.60
2022-09-30T04:23:02.548Z,9.50
2022-09-30T04:25:30.090Z,9.60
2022-09-30T04:27:57.071Z,9.60
2022-09-30T04:30:27.193Z,9.60
2022-09-30T04:32:55.993Z,9.60
2022-09-30T04:35:23.605Z,9.60
2022-09-30T04:37:50.476Z,9.60
2022-09-30T04:40:17.586Z,9.60
2022-09-30T04:42:44.523Z,9.60
2022-09-30T04:45:12.898Z,9.50
2022-09-30T04:47:45.156Z,9.50
2022-09-30T04:50:13.316Z,9.50
2022-09-30T04:52:43.697Z,9.50
2022-09-30T04:55:11.627Z,9.60
2022-09-30T04:57:38.797Z,9.50
2022-09-30T05:00:09.278Z,9.50
2022-09-30T05:02:36.479Z,9.60
2022-09-30T05:05:03.960Z,9.60
2022-09-30T05:07:32.132Z,9.60
2022-09-30T05:09:59.260Z,9.60
2022-09-30T05:12:26.348Z,9.60
2022-09-30T05:14:53.280Z,9.60
2022-09-30T05:17:20.219Z,9.60
2022-09-30T05:19:47.244Z,9.60
2022-09-30T05:22:15.389Z,9.60
2022-09-30T05:24:42.387Z,9.60
2022-09-30T05:27:09.391Z,9.70
2022-09-30T05:29:36.268Z,9.70
2022-09-30T05:32:03.216Z,9.70
2022-09-30T05:34:30.947Z,9.70
2022-09-30T05:36:57.821Z,9.70
2022-09-30T05:39:24.759Z,9.70
2022-09-30T05:41:51.643Z,9.70
2022-09-30T05:44:19.271Z,9.70
2022-09-30T05:46:46.197Z,9.70
2022-09-30T05:49:13.165Z,9.70
2022-09-30T05:51:40.110Z,9.80
2022-09-30T05:54:07.051Z,9.80
2022-09-30T05:56:38.218Z,9.80
2022-09-30T05:59:06.060Z,9.90
2022-09-30T06:01:33.596Z,10.00
2022-09-30T06:04:00.831Z,10.00
2022-09-30T06:06:27.796Z,10.00
2022-09-30T06:08:54.666Z,10.10
2022-09-30T06:11:23.438Z,10.10
2022-09-30T06:13:50.527Z,10.20
2022-09-30T06:16:18.820Z,10.20
2022-09-30T06:18:46.111Z,10.30
2022-09-30T06:21:15.700Z,10.40
2022-09-30T06:23:43.234Z,10.40
2022-09-30T06:26:13.426Z,10.50
2022-09-30T06:28:40.692Z,10.50
2022-09-30T06:31:08.143Z,10.60
2022-09-30T06:33:35.361Z,10.70
2022-09-30T06:36:04.569Z,10.70
2022-09-30T06:38:32.773Z,10.80
2022-09-30T06:41:00.702Z,10.90
2022-09-30T06:43:27.976Z,11.00
2022-09-30T06:46:06.792Z,11.10
2022-09-30T06:48:40.956Z,11.10
2022-09-30T06:51:10.940Z,11.30
2022-09-30T06:53:39.789Z,11.30
2022-09-30T06:56:06.737Z,11.40
2022-09-30T06:58:33.653Z,11.50
2022-09-30T07:01:03.857Z,11.60
2022-09-30T07:03:34.518Z,11.70
2022-09-30T07:06:04.873Z,11.80
2022-09-30T07:08:33.788Z,11.90
2022-09-30T07:11:04.512Z,11.90
2022-09-30T07:13:33.204Z,12.00
2022-09-30T07:16:00.221Z,12.10
2022-09-30T07:18:28.781Z,12.20
2022-09-30T07:20:56.690Z,12.30
2022-09-30T07:23:27.035Z,12.40
2022-09-30T07:26:01.733Z,12.50
2022-09-30T07:28:33.057Z,12.50
2022-09-30T07:31:31.466Z,12.60
2022-09-30T07:33:53.540Z,12.70
2022-09-30T07:36:31.847Z,12.80
2022-09-30T07:39:00.297Z,12.90
2022-09-30T07:41:29.134Z,12.90
2022-09-30T07:43:59.146Z,13.00
2022-09-30T07:46:30.661Z,13.00
2022-09-30T07:49:02.146Z,13.10
2022-09-30T07:51:33.375Z,13.20
2022-09-30T07:54:05.758Z,13.30
2022-09-30T07:56:51.245Z,13.30
2022-09-30T07:59:20.624Z,13.40
2022-09-30T08:01:48.538Z,13.50
2022-09-30T08:04:17.343Z,13.60
2022-09-30T08:06:48.978Z,13.70
2022-09-30T08:09:19.058Z,13.80
2022-09-30T08:11:46.092Z,13.90
2022-09-30T08:14:23.210Z,13.90
2022-09-30T08:16:50.820Z,14.00
2022-09-30T08:19:21.387Z,14.10
2022-09-30T08:21:48.873Z,14.20
2022-09-30T08:24:16.018Z,14.30
2022-09-30T08:26:43.923Z,14.40
2022-09-30T08:29:20.036Z,14.50
2022-09-30T08:31:48.034Z,14.50
2022-09-30T08:34:15.083Z,14.70
2022-09-30T08:36:41.975Z,14.80
2022-09-30T08:39:10.856Z,14.80
2022-09-30T08:42:05.004Z,14.90
2022-09-30T08:44:49.152Z,15.00
2022-09-30T08:51:29.348Z,15.20
2022-09-30T08:53:59.574Z,15.40
2022-09-30T08:56:31.949Z,15.50
2022-09-30T08:59:20.743Z,15.60
2022-09-30T09:01:53.930Z,15.70
2022-09-30T09:04:20.876Z,15.80
2022-09-30T09:07:07.364Z,15.80
2022-09-30T09:09:58.865Z,15.90
2022-09-30T09:13:05.179Z,16.00
2022-09-30T09:16:02.955Z,16.20
2022-09-30T09:19:02.972Z,16.30
2022-09-30T09:21:57.006Z,16.40
2022-09-30T09:24:30.490Z,16.40
2022-09-30T09:26:59.389Z,16.50
2022-09-30T09:29:49.345Z,16.60
2022-09-30T09:32:18.613Z,16.70
2022-09-30T09:34:51.718Z,16.80
2022-09-30T09:38:16.767Z,16.80
2022-09-30T09:41:18.362Z,16.90
2022-09-30T09:44:28.135Z,17.00
2022-09-30T09:47:05.293Z,17.10
2022-09-30T09:49:41.036Z,17.20
2022-09-30T09:52:14.287Z,17.30
2022-09-30T09:54:48.611Z,17.30
2022-09-30T09:57:24.793Z,17.40
2022-09-30T10:00:25.712Z,17.50
2022-09-30T10:03:08.252Z,17.60
2022-09-30T10:05:42.441Z,17.70
2022-09-30T10:08:18.511Z,17.70
2022-09-30T10:11:00.691Z,17.80
2022-09-30T10:13:44.589Z,17.90
2022-09-30T10:16:32.652Z,17.90
2022-09-30T10:19:00.431Z,18.00
2022-09-30T10:21:29.210Z,18.10
2022-09-30T10:23:57.639Z,18.20
2022-09-30T10:29:02.112Z,18.20
2022-09-30T10:31:36.498Z,18.30
2022-09-30T10:34:30.862Z,18.40
2022-09-30T10:37:02.651Z,18.40
2022-09-30T10:39:34.609Z,18.40
2022-09-30T10:42:07.428Z,18.50
2022-09-30T10:44:44.499Z,18.50
2022-09-30T10:47:16.925Z,18.50
2022-09-30T10:50:04.821Z,18.50
2022-09-30T10:52:38.575Z,18.70
2022-09-30T10:55:19.895Z,18.70
2022-09-30T10:57:48.982Z,18.80
2022-09-30T11:00:25.244Z,18.80
2022-09-30T11:03:03.624Z,18.90
2022-09-30T11:05:46.696Z,18.90
2022-09-30T11:08:49.697Z,18.90
2022-09-30T11:11:27.153Z,19.00
2022-09-30T11:14:07.497Z,19.00
2022-09-30T11:17:04.700Z,19.10
2022-09-30T11:19:44.165Z,19.20
2022-09-30T11:22:25.946Z,19.30
2022-09-30T11:24:55.452Z,19.30
2022-09-30T11:28:03.537Z,19.30
2022-09-30T11:30:49.418Z,19.40
2022-09-30T11:33:31.892Z,19.40
2022-09-30T11:36:12.321Z,19.40
2022-09-30T11:38:56.513Z,19.50
2022-09-30T11:41:35.491Z,19.50
2022-09-30T11:44:36.777Z,19.50
2022-09-30T11:47:28.138Z,19.60
2022-09-30T11:50:10.934Z,19.50
2022-09-30T11:53:34.893Z,19.60
2022-09-30T11:56:35.589Z,19.70
2022-09-30T11:59:22.559Z,19.70
2022-09-30T12:01:54.469Z,19.70
2022-09-30T12:04:39.793Z,19.80
2022-09-30T12:07:14.368Z,19.80
2022-09-30T12:09:48.672Z,19.80
2022-09-30T12:12:18.949Z,19.90
2022-09-30T12:14:55.548Z,20.00
2022-09-30T12:17:50.857Z,20.00
2022-09-30T12:20:43.680Z,20.10
2022-09-30T12:23:20.993Z,20.10
2022-09-30T12:25:56.261Z,20.20
2022-09-30T12:28:58.906Z,20.20
2022-09-30T12:31:41.390Z,20.20
2022-09-30T12:34:38.365Z,20.30
2022-09-30T12:37:35.961Z,20.30
2022-09-30T12:40:33.391Z,20.30
2022-09-30T12:43:25.732Z,20.30
2022-09-30T12:46:35.407Z,20.30
2022-09-30T12:49:10.556Z,20.30
2022-09-30T12:51:43.833Z,20.30
2022-09-30T12:54:32.468Z,20.30
2022-09-30T12:57:03.951Z,20.30
2022-09-30T12:59:34.969Z,20.40
2022-09-30T13:02:04.460Z,20.40
2022-09-30T13:04:39.018Z,20.40
2022-09-30T13:07:14.067Z,20.40
2022-09-30T13:10:17.195Z,20.40
2022-09-30T13:12:46.807Z,20.30
2022-09-30T13:15:44.551Z,20.30
2022-09-30T13:18:20.567Z,20.30
2022-09-30T13:21:08.244Z,20.30
2022-09-30T13:23:51.452Z,20.30
2022-09-30T13:26:33.438Z,20.30
2022-09-30T13:29:00.569Z,20.30
2022-09-30T13:31:30.280Z,20.40
2022-09-30T13:34:11.017Z,20.40
2022-09-30T13:36:51.332Z,20.40
2022-09-30T13:39:35.320Z,20.50
2022-09-30T13:42:19.128Z,20.50
2022-09-30T13:45:16.243Z,20.50
2022-09-30T13:48:00.443Z,20.60
2022-09-30T13:50:33.857Z,20.60
2022-09-30T13:53:06.787Z,20.60
2022-09-30T13:55:42.453Z,20.60
2022-09-30T13:58:47.044Z,20.60
2022-09-30T14:01:53.632Z,20.60
2022-09-30T14:05:16.870Z,20.60
2022-09-30T14:08:24.941Z,20.60
2022-09-30T14:11:25.077Z,20.60
2022-09-30T14:13:58.673Z,20.60
2022-09-30T14:16:53.090Z,20.60
2022-09-30T14:20:01.100Z,20.60
2022-09-30T14:22:30.148Z,20.60
2022-09-30T14:24:58.095Z,20.50
2022-09-30T14:27:54.380Z,20.50
2022-09-30T14:30:23.859Z,20.50
2022-09-30T14:32:57.985Z,20.50
2022-09-30T14:35:31.216Z,20.40
2022-09-30T14:38:09.049Z,20.40
2022-09-30T14:40:42.463Z,20.40
2022-09-30T14:43:18.172Z,20.40
2022-09-30T14:45:52.923Z,20.40
2022-09-30T14:48:36.989Z,20.40
2022-09-30T14:51:18.261Z,20.30
2022-09-30T14:53:57.301Z,20.30
2022-09-30T14:56:31.507Z,20.30
2022-09-30T14:59:00.749Z,20.20
2022-09-30T15:01:34.416Z,20.20
2022-09-30T15:04:15.603Z,20.20
2022-09-30T15:06:51.296Z,20.20
2022-09-30T15:09:33.646Z,20.20
2022-09-30T15:12:22.036Z,20.10
2022-09-30T15:14:59.993Z,20.10
2022-09-30T15:17:38.187Z,20.10
2022-09-30T15:20:23.997Z,20.10
2022-09-30T15:22:55.148Z,20.10
2022-09-30T15:25:22.863Z,20.00
2022-09-30T15:27:50.267Z,20.00
2022-09-30T15:30:19.782Z,20.00
2022-09-30T15:32:50.316Z,20.00
2022-09-30T15:35:23.433Z,20.00
2022-09-30T15:37:51.781Z,19.90
2022-09-30T15:40:41.055Z,19.90
2022-09-30T15:43:11.789Z,19.90
2022-09-30T15:45:44.314Z,19.80
2022-09-30T15:48:26.436Z,19.80
2022-09-30T15:51:01.321Z,19.80
2022-09-30T15:53:47.176Z,19.80
2022-09-30T15:56:20.181Z,19.70
2022-09-30T15:59:07.809Z,19.70
2022-09-30T16:01:39.440Z,19.70
2022-09-30T16:04:15.252Z,19.60
2022-09-30T16:06:48.629Z,19.60
2022-09-30T16:09:21.196Z,19.60
2022-09-30T16:12:14.406Z,19.60
2022-09-30T16:14:53.790Z,19.60
2022-09-30T16:17:37.921Z,19.50
2022-09-30T16:20:20.760Z,19.50
2022-09-30T16:22:48.106Z,19.40
2022-09-30T16:25:28.032Z,19.40
2022-09-30T16:28:12.248Z,19.30
2022-09-30T16:31:07.231Z,19.30
2022-09-30T16:33:39.913Z,19.30
2022-09-30T16:36:09.171Z,19.20
2022-09-30T16:38:36.160Z,19.10
2022-09-30T16:41:06.560Z,19.10
2022-09-30T16:43:33.974Z,19.00
2022-09-30T16:46:00.918Z,18.90
2022-09-30T16:48:27.913Z,18.80
2022-09-30T16:51:14.407Z,18.80
2022-09-30T16:53:44.416Z,18.70
2022-09-30T16:56:18.240Z,18.60
2022-09-30T16:58:46.395Z,18.50
2022-09-30T17:01:20.705Z,18.50
2022-09-30T17:03:47.930Z,18.40
2022-09-30T17:06:20.575Z,18.40
2022-09-30T17:08:50.486Z,18.40
2022-09-30T17:11:17.720Z,18.30
2022-09-30T17:13:45.061Z,18.30
2022-09-30T17:16:12.479Z,18.30
2022-09-30T17:18:40.228Z,18.20
2022-09-30T17:21:07.091Z,18.10
2022-09-30T17:23:34.061Z,18.10
2022-09-30T17:26:05.544Z,18.00
2022-09-30T17:28:34.640Z,17.90
2022-09-30T17:31:02.371Z,17.80
2022-09-30T17:33:34.695Z,17.80
2022-09-30T17:36:06.044Z,17.70
2022-09-30T17:38:34.151Z,17.60
2022-09-30T17:41:19.945Z,17.50
2022-09-30T17:43:47.037Z,17.50
2022-09-30T17:46:18.894Z,17.40
2022-09-30T17:48:46.680Z,17.30
2022-09-30T17:51:16.281Z,17.20
2022-09-30T17:53:44.600Z,17.20
2022-09-30T17:56:23.176Z,17.10
2022-09-30T17:58:50.912Z,17.00
2022-09-30T18:01:20.676Z,16.90
2022-09-30T18:03:53.448Z,16.90
2022-09-30T18:06:20.904Z,16.80
2022-09-30T18:08:51.671Z,16.70
2022-09-30T18:11:27.454Z,16.70
2022-09-30T18:13:57.670Z,16.60
2022-09-30T18:16:31.253Z,16.60
2022-09-30T18:19:04.548Z,16.50
2022-09-30T18:21:33.608Z,16.40
2022-09-30T18:24:01.528Z,16.30
2022-09-30T18:26:33.198Z,16.30
2022-09-30T18:29:02.676Z,16.20
2022-09-30T18:31:36.775Z,16.20
2022-09-30T18:34:05.966Z,16.10
2022-09-30T18:36:32.959Z,16.10
2022-09-30T18:39:02.091Z,16.00
2022-09-30T18:41:31.815Z,16.00
2022-09-30T18:44:02.565Z,15.90
2022-09-30T18:46:31.361Z,15.80
2022-09-30T18:48:58.522Z,15.80
2022-09-30T18:51:25.819Z,15.70
2022-09-30T18:53:58.652Z,15.60
2022-09-30T18:56:31.685Z,15.60
2022-09-30T18:59:00.459Z,15.50
2022-09-30T19:01:27.808Z,15.50
2022-09-30T19:03:54.852Z,15.40
2022-09-30T19:06:21.900Z,15.40
2022-09-30T19:08:48.998Z,15.30
2022-09-30T19:11:17.535Z,15.30
2022-09-30T19:13:47.878Z,15.20
2022-09-30T19:16:18.626Z,15.20
2022-09-30T19:18:46.906Z,15.20
2022-09-30T19:21:20.077Z,15.10
2022-09-30T19:23:47.666Z,15.10
2022-09-30T19:26:15.654Z,15.10
2022-09-30T19:28:42.742Z,15.00
2022-09-30T19:31:16.936Z,15.00
2022-09-30T19:33:56.233Z,15.00
2022-09-30T19:36:25.437Z,14.90
2022-09-30T19:39:04.797Z,14.90
2022-09-30T19:41:35.708Z,14.90
2022-09-30T19:44:03.077Z,14.80
2022-09-30T19:46:30.122Z,14.80
2022-09-30T19:48:57.274Z,14.80
2022-09-30T19:51:24.667Z,14.70
2022-09-30T19:54:03.566Z,14.70
2022-09-30T19:56:36.254Z,14.70
2022-09-30T19:59:03.987Z,14.70
2022-09-30T20:01:34.148Z,14.70
2022-09-30T20:04:04.746Z,14.60
2022-09-30T20:06:32.968Z,14.60
2022-09-30T20:09:02.279Z,14.60
2022-09-30T20:11:35.936Z,14.60
2022-09-30T20:14:25.891Z,14.60
2022-09-30T20:16:54.205Z,14.50
2022-09-30T20:19:22.373Z,14.50
2022-09-30T20:21:50.089Z,14.50
2022-09-30T20:24:19.364Z,14.40
2022-09-30T20:26:47.325Z,14.40
2022-09-30T20:29:14.628Z,14.40
2022-09-30T20:31:42.992Z,14.40
2022-09-30T20:34:16.297Z,14.30
2022-09-30T20:36:44.068Z,14.30
2022-09-30T20:39:11.154Z,14.30
2022-09-30T20:41:39.653Z,14.30
2022-09-30T20:44:11.778Z,14.30
2022-09-30T20:46:40.044Z,14.20
2022-09-30T20:49:07.176Z,14.20
2022-09-30T20:51:34.566Z,14.10
2022-09-30T20:54:01.693Z,14.10
2022-09-30T20:56:44.105Z,14.10
2022-09-30T20:59:17.101Z,14.00
2022-09-30T21:01:44.101Z,14.00
2022-09-30T21:04:11.130Z,13.90
2022-09-30T21:06:38.000Z,13.90
2022-09-30T21:09:05.505Z,13.80
2022-09-30T21:11:33.419Z,13.80
2022-09-30T21:14:00.680Z,13.70
2022-09-30T21:16:29.470Z,13.70
2022-09-30T21:18:56.553Z,13.60
2022-09-30T21:21:24.735Z,13.60
2022-09-30T21:23:58.676Z,13.60
2022-09-30T21:26:26.567Z,13.50
2022-09-30T21:28:53.628Z,13.50
2022-09-30T21:31:24.797Z,13.50
2022-09-30T21:33:58.442Z,13.50
2022-09-30T21:36:27.418Z,13.50
2022-09-30T21:38:54.898Z,13.40
2022-09-30T21:41:22.857Z,13.40
2022-09-30T21:43:49.784Z,13.40
2022-09-30T21:46:18.404Z,13.40
2022-09-30T21:48:46.104Z,13.40
2022-09-30T21:51:13.837Z,13.40
2022-09-30T21:53:41.087Z,13.40
2022-09-30T21:56:11.480Z,13.40
2022-09-30T21:58:38.530Z,13.40
2022-09-30T22:01:06.998Z,13.40
2022-09-30T22:03:38.692Z,13.40
2022-09-30T22:06:08.249Z,13.40
2022-09-30T22:08:39.950Z,13.40
2022-09-30T22:11:17.208Z,13.40
2022-09-30T22:13:45.903Z,13.40
2022-09-30T22:16:15.333Z,13.40
2022-09-30T22:18:43.174Z,13.40
2022-09-30T22:21:13.917Z,13.40
2022-09-30T22:23:41.168Z,13.40
2022-09-30T22:26:18.550Z,13.40
2022-09-30T22:28:47.324Z,13.40
2022-09-30T22:31:20.990Z,13.40
2022-09-30T22:34:08.285Z,13.40
2022-09-30T22:36:54.163Z,13.40
2022-09-30T22:39:22.315Z,13.40
2022-09-30T22:41:53.010Z,13.40
2022-09-30T22:44:21.550Z,13.40
2022-09-30T22:46:48.439Z,13.40
2022-09-30T22:49:15.294Z,13.30
2022-09-30T22:51:42.173Z,13.40
2022-09-30T22:54:09.116Z,13.30
2022-09-30T22:56:36.035Z,13.30
2022-09-30T22:59:02.933Z,13.30
2022-09-30T23:01:31.678Z,13.30
2022-09-30T23:03:59.090Z,13.30
2022-09-30T23:06:26.134Z,13.30
2022-09-30T23:08:54.539Z,13.30
2022-09-30T23:11:23.239Z,13.30
2022-09-30T23:13:52.591Z,13.30
2022-09-30T23:16:21.710Z,13.30
2022-09-30T23:18:48.592Z,13.30
2022-09-30T23:21:18.592Z,13.30
2022-09-30T23:23:46.783Z,13.30
2022-09-30T23:26:21.439Z,13.30
2022-09-30T23:28:49.242Z,13.30
2022-09-30T23:31:17.984Z,13.30
2022-09-30T23:33:49.095Z,13.30
2022-09-30T23:36:20.656Z,13.30
2022-09-30T23:38:47.979Z,13.30
2022-09-30T23:41:14.953Z,13.30
2022-09-30T23:43:48.244Z,13.30
2022-09-30T23:46:17.318Z,13.30
2022-09-30T23:48:46.807Z,13.20
2022-09-30T23:51:14.399Z,13.20
2022-09-30T23:53:42.481Z,13.20
2022-09-30T23:56:17.953Z,13.20
2022-09-30T23:58:47.772Z,13.20
